Time;durP1;ratioP1;P1;durP2;ratioP2;P2;SDS_P1;SDS_P2;PMS_P1;PMS_P2;Temp;Humidity;BMP_temperature;BMP_pressure;BME280_temperature;BME280_humidity;BME280_pressure;Samples;Min_cycle;Max_cycle;Signal;HPM_P1;HPM_P2
2021/12/21 00:00:34;;;;;;;;;;;2.10;99.90;;;;;;7346308;19;109509;-81
2021/12/21 00:03:01;;;;;;;;;;;1.90;99.90;;;;;;7343166;19;111091;-81
2021/12/21 00:05:29;;;;;;;;;;;1.90;99.90;;;;;;7344387;19;112154;-80
2021/12/21 00:07:58;;;;;;;;;;;2.00;99.90;;;;;;7345070;19;109359;-81
2021/12/21 00:10:26;;;;;;;;;;;1.90;99.90;;;;;;7345187;19;110858;-80
2021/12/21 00:15:39;;;;;;;;;;;1.90;99.90;;;;;;7349941;19;109368;-79
2021/12/21 00:21:13;;;;;;;;;;;1.80;99.90;;;;;;7345275;19;109300;-79
2021/12/21 00:26:09;;;;;;;;;;;1.60;99.90;;;;;;7345079;19;112468;-79
2021/12/21 00:29:10;;;;;;;;;;;1.60;99.90;;;;;;7343996;19;109493;-79
2021/12/21 00:31:31;;;;;;;;;;;1.60;99.90;;;;;;7346067;19;109971;-79
2021/12/21 00:33:59;;;;;;;;;;;1.60;99.90;;;;;;7341668;19;112098;-79
2021/12/21 00:36:27;;;;;;;;;;;1.60;99.90;;;;;;7343559;19;110005;-79
2021/12/21 00:38:56;;;;;;;;;;;1.60;99.90;;;;;;7348475;19;110971;-79
2021/12/21 00:41:24;;;;;;;;;;;1.60;99.90;;;;;;7343433;19;110042;-80
2021/12/21 00:43:51;;;;;;;;;;;1.60;99.90;;;;;;7344164;19;110593;-79
2021/12/21 00:46:19;;;;;;;;;;;1.50;99.90;;;;;;7343776;19;111778;-79
2021/12/21 00:48:55;;;;;;;;;;;1.50;99.90;;;;;;7343536;19;109421;-79
2021/12/21 00:51:24;;;;;;;;;;;1.50;99.90;;;;;;7344886;19;110077;-79
2021/12/21 00:53:51;;;;;;;;;;;1.50;99.90;;;;;;7344984;19;112125;-79
2021/12/21 00:56:18;;;;;;;;;;;1.50;99.90;;;;;;7343908;19;109990;-79
2021/12/21 00:58:45;;;;;;;;;;;1.50;99.90;;;;;;7341986;19;110360;-79
2021/12/21 01:01:12;;;;;;;;;;;1.50;99.90;;;;;;7348120;19;109923;-79
2021/12/21 01:03:48;;;;;;;;;;;1.50;99.90;;;;;;7345409;19;111086;-79
2021/12/21 01:06:38;;;;;;;;;;;1.40;99.90;;;;;;7343985;19;112723;-79
2021/12/21 01:09:41;;;;;;;;;;;1.40;99.90;;;;;;7344385;19;109107;-79
2021/12/21 01:12:07;;;;;;;;;;;1.30;99.90;;;;;;7344089;19;109097;-79
2021/12/21 01:17:16;;;;;;;;;;;1.40;99.90;;;;;;7344745;19;109395;-79
2021/12/21 01:20:05;;;;;;;;;;;1.50;99.90;;;;;;7340049;19;110915;-79
2021/12/21 01:23:07;;;;;;;;;;;1.60;99.90;;;;;;7343364;19;111647;-79
2021/12/21 01:28:03;;;;;;;;;;;1.70;99.90;;;;;;7342252;19;111608;-80
2021/12/21 01:35:33;;;;;;;;;;;1.70;99.90;;;;;;7350633;19;112158;-79
2021/12/21 01:38:19;;;;;;;;;;;1.60;99.90;;;;;;7349833;19;109284;-79
2021/12/21 01:40:54;;;;;;;;;;;1.40;99.90;;;;;;7348791;19;110089;-79
2021/12/21 01:43:47;;;;;;;;;;;1.40;99.90;;;;;;7349784;19;111720;-80
2021/12/21 01:51:45;;;;;;;;;;;1.20;99.90;;;;;;7349910;19;109401;-81
2021/12/21 01:54:11;;;;;;;;;;;1.10;99.90;;;;;;7350220;19;110623;-80
2021/12/21 01:56:38;;;;;;;;;;;1.10;99.90;;;;;;7348758;19;111848;-81
2021/12/21 01:59:05;;;;;;;;;;;1.00;99.90;;;;;;7348689;19;109253;-81
2021/12/21 02:01:32;;;;;;;;;;;1.10;99.90;;;;;;7350220;19;110645;-79
2021/12/21 02:03:59;;;;;;;;;;;1.10;99.90;;;;;;7347894;19;111553;-79
2021/12/21 02:06:27;;;;;;;;;;;1.20;99.90;;;;;;7350100;19;109276;-79
2021/12/21 02:08:55;;;;;;;;;;;1.30;99.90;;;;;;7354038;19;110838;-81
2021/12/21 02:11:22;;;;;;;;;;;1.40;99.90;;;;;;7349884;19;109468;-81
2021/12/21 02:13:50;;;;;;;;;;;1.40;99.90;;;;;;7349434;19;110749;-80
2021/12/21 02:16:25;;;;;;;;;;;1.40;99.90;;;;;;7349906;19;111742;-80
2021/12/21 02:21:32;;;;;;;;;;;1.30;99.90;;;;;;7349146;19;110765;-79
2021/12/21 02:24:05;;;;;;;;;;;1.20;99.90;;;;;;7348121;19;112152;-80
2021/12/21 02:31:40;;;;;;;;;;;1.30;99.90;;;;;;7352931;19;111666;-81
2021/12/21 02:34:07;;;;;;;;;;;1.20;99.90;;;;;;7348808;19;110739;-80
2021/12/21 02:36:35;;;;;;;;;;;1.10;99.90;;;;;;7347051;19;111716;-79
2021/12/21 02:39:03;;;;;;;;;;;1.00;99.90;;;;;;7347941;19;109292;-80
2021/12/21 02:41:31;;;;;;;;;;;0.90;99.90;;;;;;7347873;19;110713;-80
2021/12/21 02:43:58;;;;;;;;;;;0.90;99.90;;;;;;7348642;19;111621;-80
2021/12/21 02:46:25;;;;;;;;;;;0.90;99.90;;;;;;7347762;19;110287;-79
2021/12/21 02:48:52;;;;;;;;;;;0.80;99.90;;;;;;7348958;19;110846;-79
2021/12/21 02:51:19;;;;;;;;;;;0.90;99.90;;;;;;7347141;19;111655;-79
2021/12/21 02:53:46;;;;;;;;;;;0.80;99.90;;;;;;7353979;19;109408;-79
2021/12/21 02:56:13;;;;;;;;;;;0.80;99.90;;;;;;7345351;19;112008;-79
2021/12/21 02:58:41;;;;;;;;;;;0.90;99.90;;;;;;7347623;19;109899;-79
2021/12/21 03:01:08;;;;;;;;;;;1.00;99.90;;;;;;7347941;19;114015;-79
2021/12/21 03:03:35;;;;;;;;;;;1.10;99.90;;;;;;7345985;19;112709;-79
2021/12/21 03:06:05;;;;;;;;;;;1.00;99.90;;;;;;7348606;19;109942;-79
2021/12/21 03:08:41;;;;;;;;;;;1.10;99.90;;;;;;7347175;19;110663;-79
2021/12/21 03:11:18;;;;;;;;;;;1.10;99.90;;;;;;7347923;19;111943;-79
2021/12/21 03:14:03;;;;;;;;;;;1.00;99.90;;;;;;7346591;19;109968;-79
2021/12/21 03:16:31;;;;;;;;;;;1.00;99.90;;;;;;7350861;19;110673;-79
2021/12/21 03:18:59;;;;;;;;;;;1.00;99.90;;;;;;7347244;19;109633;-79
2021/12/21 03:21:27;;;;;;;;;;;1.00;99.90;;;;;;7347306;19;110831;-79
2021/12/21 03:23:55;;;;;;;;;;;1.00;99.90;;;;;;7344678;19;111481;-79
2021/12/21 03:26:22;;;;;;;;;;;1.00;99.90;;;;;;7344238;19;109814;-80
2021/12/21 03:28:49;;;;;;;;;;;1.00;99.90;;;;;;7347596;19;111295;-80
2021/12/21 03:31:16;;;;;;;;;;;1.00;99.90;;;;;;7345976;19;111683;-80
2021/12/21 03:33:43;;;;;;;;;;;0.90;99.90;;;;;;7347705;19;109814;-79
2021/12/21 03:36:10;;;;;;;;;;;0.90;99.90;;;;;;7350793;19;111214;-79
2021/12/21 03:38:39;;;;;;;;;;;0.80;99.90;;;;;;7345792;19;109382;-79
2021/12/21 03:41:12;;;;;;;;;;;0.70;99.90;;;;;;7343570;19;110989;-79
2021/12/21 03:43:39;;;;;;;;;;;0.70;99.90;;;;;;7345404;19;111800;-81
2021/12/21 03:46:11;;;;;;;;;;;0.70;99.90;;;;;;7346100;19;109393;-79
2021/12/21 03:48:41;;;;;;;;;;;0.60;99.90;;;;;;7346032;19;110939;-79
2021/12/21 03:51:09;;;;;;;;;;;0.70;99.90;;;;;;7344361;19;112957;-79
2021/12/21 03:53:39;;;;;;;;;;;0.80;99.90;;;;;;7341692;19;120169;-79
2021/12/21 03:58:33;;;;;;;;;;;0.80;99.90;;;;;;7351116;19;111941;-78
2021/12/21 04:01:00;;;;;;;;;;;0.80;99.90;;;;;;7343918;19;110617;-78
2021/12/21 04:03:27;;;;;;;;;;;0.90;99.90;;;;;;7344104;19;111911;-78
2021/12/21 04:05:54;;;;;;;;;;;0.80;99.90;;;;;;7344740;19;109878;-79
2021/12/21 04:08:21;;;;;;;;;;;0.70;99.90;;;;;;7345334;19;110627;-78
2021/12/21 04:10:48;;;;;;;;;;;0.60;99.90;;;;;;7346101;19;111490;-79
2021/12/21 04:13:15;;;;;;;;;;;0.60;99.90;;;;;;7343710;19;109469;-78
2021/12/21 04:15:43;;;;;;;;;;;0.60;99.90;;;;;;7345015;19;111393;-79
2021/12/21 04:18:10;;;;;;;;;;;0.50;99.90;;;;;;7344869;19;111778;-78
2021/12/21 04:20:38;;;;;;;;;;;0.50;99.90;;;;;;7349144;19;109907;-79
2021/12/21 04:23:06;;;;;;;;;;;0.50;99.90;;;;;;7343506;19;112057;-79
2021/12/21 04:25:33;;;;;;;;;;;0.50;99.90;;;;;;7345308;19;109277;-78
2021/12/21 04:28:00;;;;;;;;;;;0.60;99.90;;;;;;7344352;19;111343;-78
2021/12/21 04:30:27;;;;;;;;;;;0.60;99.90;;;;;;7344642;19;111621;-79
2021/12/21 04:32:54;;;;;;;;;;;0.50;99.90;;;;;;7345431;19;109461;-78
2021/12/21 04:35:21;;;;;;;;;;;0.60;99.90;;;;;;7344683;19;110559;-78
2021/12/21 04:37:58;;;;;;;;;;;0.60;99.90;;;;;;7342666;19;111969;-79
2021/12/21 04:40:40;;;;;;;;;;;0.50;99.90;;;;;;7341268;19;109309;-78
2021/12/21 04:43:07;;;;;;;;;;;0.40;99.90;;;;;;7350455;19;111035;-79
2021/12/21 04:45:34;;;;;;;;;;;0.40;99.90;;;;;;7344844;19;109304;-79
2021/12/21 04:48:01;;;;;;;;;;;0.30;99.90;;;;;;7343476;19;110926;-78
2021/12/21 04:50:28;;;;;;;;;;;0.20;99.90;;;;;;7344345;19;112429;-78
2021/12/21 04:52:55;;;;;;;;;;;0.20;99.90;;;;;;7345605;19;109328;-78
2021/12/21 04:55:22;;;;;;;;;;;0.20;99.90;;;;;;7344644;19;109243;-78
2021/12/21 04:57:49;;;;;;;;;;;0.10;99.90;;;;;;7340899;19;111495;-79
2021/12/21 05:00:16;;;;;;;;;;;0.10;99.90;;;;;;7343189;19;109415;-78
2021/12/21 05:02:43;;;;;;;;;;;0.00;99.90;;;;;;7343020;19;111009;-78
2021/12/21 05:05:10;;;;;;;;;;;0.00;99.90;;;;;;7351329;19;111730;-78
2021/12/21 05:07:39;;;;;;;;;;;0.00;99.90;;;;;;7350174;19;110889;-79
2021/12/21 05:10:09;;;;;;;;;;;0.10;99.90;;;;;;7351357;19;111654;-79
2021/12/21 05:12:36;;;;;;;;;;;0.20;99.90;;;;;;7351038;19;109375;-78
2021/12/21 05:15:05;;;;;;;;;;;0.30;99.90;;;;;;7350135;19;110856;-79
2021/12/21 05:17:32;;;;;;;;;;;0.30;99.90;;;;;;7349191;19;112198;-79
2021/12/21 05:19:59;;;;;;;;;;;0.30;99.90;;;;;;7349335;19;109197;-78
2021/12/21 05:22:27;;;;;;;;;;;0.30;99.90;;;;;;7350839;19;110682;-79
2021/12/21 05:24:54;;;;;;;;;;;0.30;99.90;;;;;;7348490;19;111532;-78
2021/12/21 05:27:21;;;;;;;;;;;0.20;99.90;;;;;;7354362;19;109419;-78
2021/12/21 05:29:48;;;;;;;;;;;0.20;99.90;;;;;;7349011;19;112033;-79
2021/12/21 05:32:15;;;;;;;;;;;0.10;99.90;;;;;;7351748;19;109380;-79
2021/12/21 05:34:42;;;;;;;;;;;0.10;99.90;;;;;;7347260;19;110532;-78
2021/12/21 05:37:09;;;;;;;;;;;0.10;99.90;;;;;;7350059;19;111804;-79
2021/12/21 05:42:22;;;;;;;;;;;0.10;99.90;;;;;;7350936;19;111030;-78
2021/12/21 05:44:52;;;;;;;;;;;0.10;99.90;;;;;;7347255;19;112099;-79
2021/12/21 05:47:19;;;;;;;;;;;0.10;99.90;;;;;;7355673;19;109443;-79
2021/12/21 05:49:46;;;;;;;;;;;0.10;99.90;;;;;;7349687;19;112007;-78
2021/12/21 05:52:13;;;;;;;;;;;0.10;99.90;;;;;;7349616;19;109684;-78
2021/12/21 05:54:40;;;;;;;;;;;0.00;99.90;;;;;;7349579;19;111572;-79
2021/12/21 05:57:07;;;;;;;;;;;-0.10;99.90;;;;;;7346421;19;112779;-78
2021/12/21 05:59:34;;;;;;;;;;;-0.20;99.90;;;;;;7348193;19;109328;-78
2021/12/21 06:02:02;;;;;;;;;;;-0.30;99.90;;;;;;7349222;19;111437;-79
2021/12/21 06:04:29;;;;;;;;;;;-0.30;99.90;;;;;;7348048;19;111885;-79
2021/12/21 06:06:55;;;;;;;;;;;-0.40;99.90;;;;;;7349505;19;109417;-79
2021/12/21 06:09:23;;;;;;;;;;;-0.40;99.90;;;;;;7355339;19;111395;-79
2021/12/21 06:12:10;;;;;;;;;;;-0.40;99.90;;;;;;7348657;19;109391;-79
2021/12/21 06:15:16;;;;;;;;;;;-0.50;99.90;;;;;;7349049;19;110559;-78
2021/12/21 06:23:37;;;;;;;;;;;-0.30;99.90;;;;;;7346520;19;110859;-78
2021/12/21 06:26:07;;;;;;;;;;;-0.20;99.90;;;;;;7344337;19;110813;-81
2021/12/21 06:28:34;;;;;;;;;;;-0.10;99.90;;;;;;7348924;19;109213;-81
2021/12/21 06:31:02;;;;;;;;;;;0.00;99.90;;;;;;7351052;19;110882;-81
2021/12/21 06:33:29;;;;;;;;;;;0.10;99.90;;;;;;7354702;19;112065;-82
2021/12/21 06:35:56;;;;;;;;;;;0.10;99.90;;;;;;7353928;19;112605;-81
2021/12/21 06:38:23;;;;;;;;;;;0.10;99.90;;;;;;7353502;19;112198;-80
2021/12/21 06:40:51;;;;;;;;;;;0.10;99.90;;;;;;7352399;19;110419;-81
2021/12/21 06:43:18;;;;;;;;;;;0.10;99.90;;;;;;7349213;19;110409;-81
2021/12/21 06:45:55;;;;;;;;;;;0.20;99.90;;;;;;7351728;19;110494;-81
2021/12/21 06:51:18;;;;;;;;;;;0.60;99.90;;;;;;7353616;19;110899;-81
2021/12/21 06:53:47;;;;;;;;;;;0.70;99.90;;;;;;7350650;19;111888;-84
2021/12/21 06:56:14;;;;;;;;;;;0.90;99.90;;;;;;7351169;19;109451;-84
2021/12/21 06:58:41;;;;;;;;;;;0.80;99.90;;;;;;7346459;19;112021;-84
2021/12/21 07:01:08;;;;;;;;;;;0.60;99.90;;;;;;7343303;19;110104;-83
2021/12/21 07:03:36;;;;;;;;;;;0.50;99.90;;;;;;7346827;19;110879;-84
2021/12/21 07:06:05;;;;;;;;;;;0.30;99.90;;;;;;7344581;19;111922;-83
2021/12/21 07:08:42;;;;;;;;;;;0.20;99.90;;;;;;7345379;19;110233;-83
2021/12/21 07:19:14;;;;;;;;;;;0.00;99.90;;;;;;7352496;19;110820;-84
2021/12/21 07:21:40;;;;;;;;;;;0.00;99.90;;;;;;7345595;19;109314;-84
2021/12/21 07:24:07;;;;;;;;;;;0.00;99.90;;;;;;7345580;19;110657;-83
2021/12/21 07:26:34;;;;;;;;;;;0.00;99.90;;;;;;7345157;19;112989;-83
2021/12/21 07:29:02;;;;;;;;;;;-0.10;99.90;;;;;;7345153;19;109598;-84
2021/12/21 07:31:30;;;;;;;;;;;-0.10;99.90;;;;;;7346535;19;110804;-84
2021/12/21 07:33:58;;;;;;;;;;;-0.10;99.90;;;;;;7342985;19;110307;-83
2021/12/21 07:36:26;;;;;;;;;;;-0.10;99.90;;;;;;7348462;19;109367;-84
2021/12/21 07:38:53;;;;;;;;;;;-0.10;99.90;;;;;;7347227;19;111714;-84
2021/12/21 07:41:20;;;;;;;;;;;-0.20;99.90;;;;;;7351445;19;110501;-84
2021/12/21 07:43:47;;;;;;;;;;;-0.20;99.90;;;;;;7346896;19;109675;-84
2021/12/21 07:46:14;;;;;;;;;;;-0.20;99.90;;;;;;7347235;19;112585;-84
2021/12/21 07:48:41;;;;;;;;;;;-0.20;99.90;;;;;;7346942;19;109436;-84
2021/12/21 07:51:09;;;;;;;;;;;-0.20;99.90;;;;;;7345521;19;111092;-83
2021/12/21 07:53:36;;;;;;;;;;;-0.30;99.90;;;;;;7346792;19;112126;-83
2021/12/21 07:56:03;;;;;;;;;;;-0.30;99.90;;;;;;7346996;19;109544;-83
2021/12/21 07:58:31;;;;;;;;;;;-0.20;99.90;;;;;;7347079;19;110250;-83
2021/12/21 08:00:59;;;;;;;;;;;-0.10;99.90;;;;;;7349909;19;112650;-84
2021/12/21 08:03:26;;;;;;;;;;;-0.10;99.90;;;;;;7347123;19;110995;-84
2021/12/21 08:05:57;;;;;;;;;;;-0.10;99.90;;;;;;7345255;19;111908;-83
2021/12/21 08:08:27;;;;;;;;;;;-0.10;99.90;;;;;;7347339;19;109933;-83
2021/12/21 08:11:08;;;;;;;;;;;-0.10;99.90;;;;;;7345172;19;111059;-84
2021/12/21 08:13:36;;;;;;;;;;;0.00;99.90;;;;;;7344622;19;112239;-84
2021/12/21 08:16:03;;;;;;;;;;;-0.10;99.90;;;;;;7344324;19;109491;-84
2021/12/21 08:18:30;;;;;;;;;;;-0.20;99.90;;;;;;7345963;19;110915;-84
2021/12/21 08:20:57;;;;;;;;;;;-0.20;99.90;;;;;;7345322;19;115185;-83
2021/12/21 08:23:24;;;;;;;;;;;-0.20;99.90;;;;;;7351307;19;109344;-83
2021/12/21 08:25:52;;;;;;;;;;;-0.20;99.90;;;;;;7345655;19;112235;-83
2021/12/21 08:28:19;;;;;;;;;;;-0.10;99.90;;;;;;7345469;19;109405;-83
2021/12/21 08:30:46;;;;;;;;;;;0.00;99.90;;;;;;7344868;19;110635;-83
2021/12/21 08:33:13;;;;;;;;;;;0.00;99.90;;;;;;7343247;19;112627;-83
2021/12/21 08:35:40;;;;;;;;;;;0.00;99.90;;;;;;7345425;19;109513;-83
2021/12/21 08:38:13;;;;;;;;;;;0.00;99.90;;;;;;7346164;19;111404;-83
2021/12/21 08:40:40;;;;;;;;;;;0.10;99.90;;;;;;7359608;19;112221;-83
2021/12/21 08:43:09;;;;;;;;;;;0.10;99.90;;;;;;7359108;19;110034;-83
2021/12/21 08:45:37;;;;;;;;;;;0.20;99.90;;;;;;7363211;19;111383;-82
2021/12/21 08:48:05;;;;;;;;;;;0.30;99.90;;;;;;7358055;19;109372;-84
2021/12/21 08:50:32;;;;;;;;;;;0.30;99.90;;;;;;7359495;19;110844;-83
2021/12/21 08:52:59;;;;;;;;;;;0.30;99.90;;;;;;7359709;19;112463;-83
2021/12/21 08:55:26;;;;;;;;;;;0.40;99.90;;;;;;7359353;19;109958;-83
2021/12/21 08:57:54;;;;;;;;;;;0.40;99.90;;;;;;7357816;19;111214;-83
2021/12/21 09:00:22;;;;;;;;;;;0.50;99.90;;;;;;7357229;19;112307;-83
2021/12/21 09:02:50;;;;;;;;;;;0.60;99.90;;;;;;7357211;19;109808;-84
2021/12/21 09:05:20;;;;;;;;;;;0.80;99.90;;;;;;7358432;19;110841;-85
2021/12/21 09:07:47;;;;;;;;;;;0.90;99.90;;;;;;7365038;19;111868;-84
2021/12/21 09:10:19;;;;;;;;;;;1.00;99.90;;;;;;7358829;19;111004;-84
2021/12/21 09:12:46;;;;;;;;;;;1.20;99.90;;;;;;7359149;19;112197;-84
2021/12/21 09:15:14;;;;;;;;;;;1.30;99.90;;;;;;7359165;19;109317;-84
2021/12/21 09:17:41;;;;;;;;;;;1.30;99.90;;;;;;7358319;19;110874;-85
2021/12/21 09:20:09;;;;;;;;;;;1.40;99.90;;;;;;7357316;19;112007;-84
2021/12/21 09:22:45;;;;;;;;;;;1.50;99.90;;;;;;7355915;19;109259;-85
2021/12/21 09:25:12;;;;;;;;;;;1.60;99.90;;;;;;7358750;19;110984;-85
2021/12/21 09:27:40;;;;;;;;;;;1.60;99.90;;;;;;7357595;19;111948;-84
2021/12/21 09:30:08;;;;;;;;;;;1.70;99.90;;;;;;7364313;19;109306;-84
2021/12/21 09:32:35;;;;;;;;;;;1.80;99.90;;;;;;7357638;19;115444;-84
2021/12/21 09:35:03;;;;;;;;;;;1.70;99.90;;;;;;7357579;19;110298;-84
2021/12/21 09:37:31;;;;;;;;;;;1.70;99.90;;;;;;7358216;19;111256;-84
2021/12/21 09:39:59;;;;;;;;;;;1.60;99.90;;;;;;7357210;19;113389;-84
2021/12/21 09:42:30;;;;;;;;;;;1.60;99.90;;;;;;7356983;19;109224;-84
2021/12/21 09:44:57;;;;;;;;;;;1.60;99.90;;;;;;7356582;19;111148;-84
2021/12/21 09:47:26;;;;;;;;;;;1.80;99.90;;;;;;7358133;19;110471;-84
2021/12/21 09:49:53;;;;;;;;;;;1.90;99.90;;;;;;7356743;19;109312;-85
2021/12/21 09:52:22;;;;;;;;;;;2.10;99.90;;;;;;7355090;19;111186;-84
2021/12/21 09:54:49;;;;;;;;;;;2.00;99.90;;;;;;7350076;19;109337;-84
2021/12/21 09:57:17;;;;;;;;;;;1.90;99.90;;;;;;7350936;19;109007;-84
2021/12/21 09:59:44;;;;;;;;;;;1.90;99.90;;;;;;7350073;19;113069;-83
2021/12/21 10:02:12;;;;;;;;;;;1.90;99.90;;;;;;7348678;19;109347;-83
2021/12/21 10:04:46;;;;;;;;;;;2.00;99.90;;;;;;7347370;19;111951;-83
2021/12/21 10:07:14;;;;;;;;;;;2.10;99.90;;;;;;7349334;19;111805;-82
2021/12/21 10:09:43;;;;;;;;;;;2.20;99.90;;;;;;7350334;19;109352;-83
2021/12/21 10:12:14;;;;;;;;;;;2.30;99.90;;;;;;7354542;19;111005;-83
2021/12/21 10:14:41;;;;;;;;;;;2.30;99.90;;;;;;7350059;19;109289;-83
2021/12/21 10:17:09;;;;;;;;;;;2.40;99.90;;;;;;7347103;19;113626;-83
2021/12/21 10:19:37;;;;;;;;;;;2.60;99.90;;;;;;7348193;19;113007;-83
2021/12/21 10:22:08;;;;;;;;;;;2.70;99.90;;;;;;7348231;19;109436;-83
2021/12/21 10:24:42;;;;;;;;;;;2.80;99.90;;;;;;7349770;19;110943;-82
2021/12/21 10:27:10;;;;;;;;;;;2.90;99.90;;;;;;7348641;19;111986;-82
2021/12/21 10:29:41;;;;;;;;;;;2.80;99.90;;;;;;7348388;19;109484;-82
2021/12/21 10:32:15;;;;;;;;;;;2.90;99.90;;;;;;7348033;19;110694;-82
2021/12/21 10:34:59;;;;;;;;;;;3.00;99.90;;;;;;7351307;19;111917;-83
2021/12/21 10:37:28;;;;;;;;;;;3.10;99.90;;;;;;7349494;19;111078;-83
2021/12/21 10:40:02;;;;;;;;;;;3.30;99.90;;;;;;7347641;19;112628;-82
2021/12/21 10:42:29;;;;;;;;;;;3.40;99.90;;;;;;7347137;19;109351;-83
2021/12/21 10:45:05;;;;;;;;;;;3.40;99.90;;;;;;7348616;19;110688;-82
2021/12/21 10:47:33;;;;;;;;;;;3.50;99.90;;;;;;7346904;19;116282;-82
2021/12/21 10:50:00;;;;;;;;;;;3.60;99.90;;;;;;7343158;19;109309;-83
2021/12/21 10:52:27;;;;;;;;;;;3.70;99.90;;;;;;7348230;19;111237;-82
2021/12/21 10:54:54;;;;;;;;;;;3.80;99.90;;;;;;7346267;19;110390;-82
2021/12/21 10:57:23;;;;;;;;;;;3.80;99.90;;;;;;7354192;19;109307;-82
2021/12/21 10:59:51;;;;;;;;;;;3.90;99.90;;;;;;7345409;19;111817;-82
2021/12/21 11:02:28;;;;;;;;;;;4.00;99.90;;;;;;7343662;19;109393;-83
2021/12/21 11:05:00;;;;;;;;;;;4.10;99.90;;;;;;7345756;19;110987;-83
2021/12/21 11:07:36;;;;;;;;;;;4.10;99.90;;;;;;7345671;19;112179;-83
2021/12/21 11:10:11;;;;;;;;;;;4.20;99.90;;;;;;7346576;19;109476;-82
2021/12/21 11:13:09;;;;;;;;;;;4.30;99.90;;;;;;7345313;19;112364;-83
2021/12/21 11:15:37;;;;;;;;;;;4.40;99.90;;;;;;7346869;19;112499;-82
2021/12/21 11:18:06;;;;;;;;;;;4.40;99.90;;;;;;7347326;19;109452;-83
2021/12/21 11:20:35;;;;;;;;;;;4.50;99.90;;;;;;7351153;19;109544;-83
2021/12/21 11:23:02;;;;;;;;;;;4.60;99.90;;;;;;7345407;19;109394;-82
2021/12/21 11:25:29;;;;;;;;;;;4.70;99.90;;;;;;7346478;19;112042;-83
2021/12/21 11:27:56;;;;;;;;;;;4.80;99.90;;;;;;7346605;19;110550;-82
2021/12/21 11:30:26;;;;;;;;;;;4.80;99.90;;;;;;7345914;19;109374;-84
2021/12/21 11:32:53;;;;;;;;;;;4.90;99.90;;;;;;7347840;19;109424;-83
2021/12/21 11:37:53;;;;;;;;;;;5.10;99.90;;;;;;7347600;19;109378;-83
2021/12/21 11:40:23;;;;;;;;;;;5.20;99.90;;;;;;7346524;19;110161;-84
2021/12/21 11:42:49;;;;;;;;;;;5.20;99.90;;;;;;7348664;19;110499;-84
2021/12/21 11:45:23;;;;;;;;;;;5.30;99.90;;;;;;7342764;19;110015;-82
2021/12/21 11:47:58;;;;;;;;;;;5.40;99.90;;;;;;7343983;19;112008;-82
2021/12/21 11:50:26;;;;;;;;;;;5.40;99.90;;;;;;7346705;19;109770;-82
2021/12/21 11:52:54;;;;;;;;;;;5.40;99.90;;;;;;7346432;19;110625;-82
2021/12/21 11:55:26;;;;;;;;;;;5.50;99.90;;;;;;7346251;19;113695;-83
2021/12/21 11:58:13;;;;;;;;;;;5.50;99.90;;;;;;7345632;19;109449;-83
2021/12/21 12:00:45;;;;;;;;;;;5.60;99.90;;;;;;7346248;19;110929;-83
2021/12/21 12:03:13;;;;;;;;;;;5.60;99.90;;;;;;7344012;19;111823;-82
2021/12/21 12:06:00;;;;;;;;;;;5.60;99.90;;;;;;7352211;19;109348;-84
2021/12/21 12:08:42;;;;;;;;;;;5.70;99.90;;;;;;7343278;19;112264;-83
2021/12/21 12:11:24;;;;;;;;;;;5.80;99.90;;;;;;7345960;19;109243;-82
2021/12/21 12:14:02;;;;;;;;;;;5.90;99.90;;;;;;7343290;19;110623;-82
2021/12/21 12:16:38;;;;;;;;;;;6.00;99.90;;;;;;7344728;19;110042;-83
2021/12/21 12:19:09;;;;;;;;;;;6.10;99.90;;;;;;7346272;19;109207;-84
2021/12/21 12:21:36;;;;;;;;;;;6.10;99.90;;;;;;7344230;19;110623;-82
2021/12/21 12:24:05;;;;;;;;;;;6.10;99.90;;;;;;7340252;19;111913;-81
2021/12/21 12:26:33;;;;;;;;;;;6.10;99.90;;;;;;7351344;19;109279;-82
2021/12/21 12:29:13;;;;;;;;;;;6.20;99.90;;;;;;7344679;19;112165;-83
2021/12/21 12:31:41;;;;;;;;;;;6.40;99.90;;;;;;7345735;19;109305;-82
2021/12/21 12:34:08;;;;;;;;;;;6.30;99.90;;;;;;7342665;19;111288;-82
2021/12/21 12:36:53;;;;;;;;;;;6.40;99.90;;;;;;7344956;19;111703;-83
2021/12/21 12:39:29;;;;;;;;;;;6.40;99.90;;;;;;7345242;19;109789;-82
2021/12/21 12:42:09;;;;;;;;;;;6.50;99.90;;;;;;7344783;19;110908;-83
2021/12/21 12:44:38;;;;;;;;;;;6.60;99.90;;;;;;7343912;19;111738;-82
2021/12/21 12:47:06;;;;;;;;;;;6.60;99.90;;;;;;7344183;19;109418;-81
2021/12/21 12:49:35;;;;;;;;;;;6.60;99.90;;;;;;7347157;19;111028;-82
2021/12/21 12:52:15;;;;;;;;;;;6.50;99.90;;;;;;7344833;19;109481;-83
2021/12/21 12:54:43;;;;;;;;;;;6.50;99.90;;;;;;7346124;19;109397;-83
2021/12/21 12:57:11;;;;;;;;;;;6.50;99.90;;;;;;7342384;19;112065;-82
2021/12/21 12:59:48;;;;;;;;;;;6.50;99.90;;;;;;7344985;19;109313;-82
2021/12/21 13:02:15;;;;;;;;;;;6.70;99.90;;;;;;7341648;19;110794;-82
2021/12/21 13:04:42;;;;;;;;;;;6.80;99.90;;;;;;7344104;19;112091;-82
2021/12/21 13:07:09;;;;;;;;;;;7.00;99.90;;;;;;7343237;19;109656;-82
2021/12/21 13:09:36;;;;;;;;;;;7.10;99.90;;;;;;7342599;19;110709;-82
2021/12/21 13:12:08;;;;;;;;;;;7.10;99.90;;;;;;7347296;19;109942;-83
2021/12/21 13:14:35;;;;;;;;;;;7.20;99.90;;;;;;7340500;19;110925;-84
2021/12/21 13:17:02;;;;;;;;;;;7.20;99.90;;;;;;7342718;19;112042;-82
2021/12/21 13:19:31;;;;;;;;;;;7.20;99.90;;;;;;7342290;19;109411;-82
2021/12/21 13:22:01;;;;;;;;;;;7.10;99.90;;;;;;7343081;19;110657;-84
2021/12/21 13:24:31;;;;;;;;;;;6.90;99.80;;;;;;7340369;19;111820;-82
2021/12/21 13:26:59;;;;;;;;;;;6.90;99.90;;;;;;7348790;19;109324;-82
2021/12/21 13:29:28;;;;;;;;;;;7.10;99.90;;;;;;7350700;19;110803;-82
2021/12/21 13:31:57;;;;;;;;;;;7.30;99.90;;;;;;7349474;19;112431;-82
2021/12/21 13:34:25;;;;;;;;;;;7.40;99.90;;;;;;7354468;19;109482;-84
2021/12/21 13:36:54;;;;;;;;;;;7.40;99.90;;;;;;7349458;19;111684;-82
2021/12/21 13:39:22;;;;;;;;;;;7.40;99.90;;;;;;7349398;19;109451;-83
2021/12/21 13:41:53;;;;;;;;;;;7.50;99.90;;;;;;7350461;19;110809;-82
2021/12/21 13:44:25;;;;;;;;;;;7.50;99.90;;;;;;7349567;19;111988;-83
2021/12/21 13:46:52;;;;;;;;;;;7.50;99.90;;;;;;7349472;19;109935;-82
2021/12/21 13:49:49;;;;;;;;;;;7.60;99.90;;;;;;7348509;19;112273;-82
2021/12/21 13:52:18;;;;;;;;;;;7.60;99.90;;;;;;7341538;19;112123;-82
2021/12/21 13:54:45;;;;;;;;;;;7.70;99.90;;;;;;7342546;19;109423;-79
2021/12/21 13:57:16;;;;;;;;;;;7.60;98.80;;;;;;7351486;19;110621;-79
2021/12/21 13:59:46;;;;;;;;;;;7.40;98.70;;;;;;7347965;19;109476;-80
2021/12/21 14:02:25;;;;;;;;;;;7.40;99.20;;;;;;7348590;19;111956;-80
2021/12/21 14:05:00;;;;;;;;;;;7.30;98.90;;;;;;7347920;19;111858;-79
2021/12/21 14:07:30;;;;;;;;;;;7.20;99.70;;;;;;7351168;19;109433;-82
2021/12/21 14:10:20;;;;;;;;;;;7.30;99.90;;;;;;7349174;19;110563;-81
2021/12/21 14:12:59;;;;;;;;;;;7.30;99.90;;;;;;7348731;19;111638;-79
2021/12/21 14:15:53;;;;;;;;;;;7.30;99.90;;;;;;7349189;19;109429;-80
2021/12/21 14:18:21;;;;;;;;;;;7.30;99.70;;;;;;7351680;19;110866;-79
2021/12/21 14:21:03;;;;;;;;;;;7.30;99.90;;;;;;7348582;19;109744;-79
2021/12/21 14:23:30;;;;;;;;;;;7.20;98.30;;;;;;7347958;19;110533;-80
2021/12/21 14:26:06;;;;;;;;;;;7.10;99.50;;;;;;7349049;19;111733;-80
2021/12/21 14:28:43;;;;;;;;;;;7.00;99.00;;;;;;7349298;19;109549;-80
2021/12/21 14:31:10;;;;;;;;;;;6.90;99.40;;;;;;7349350;19;111061;-82
2021/12/21 14:33:44;;;;;;;;;;;6.70;99.20;;;;;;7346057;19;112994;-80
2021/12/21 14:36:15;;;;;;;;;;;6.70;99.70;;;;;;7347309;19;109364;-81
2021/12/21 14:38:51;;;;;;;;;;;6.60;99.60;;;;;;7347997;19;110674;-79
2021/12/21 14:41:22;;;;;;;;;;;6.60;99.90;;;;;;7352857;19;111830;-80
2021/12/21 14:43:59;;;;;;;;;;;6.60;99.90;;;;;;7347901;19;110541;-81
2021/12/21 14:46:26;;;;;;;;;;;6.50;99.90;;;;;;7347950;19;111481;-81
2021/12/21 14:49:12;;;;;;;;;;;6.40;99.80;;;;;;7348818;19;109298;-79
2021/12/21 14:51:50;;;;;;;;;;;6.20;99.90;;;;;;7348924;19;111373;-81
2021/12/21 14:54:25;;;;;;;;;;;6.10;99.80;;;;;;7348549;19;111630;-78
2021/12/21 14:56:52;;;;;;;;;;;6.00;99.70;;;;;;7348957;19;109458;-79
2021/12/21 14:59:29;;;;;;;;;;;5.80;99.90;;;;;;7342497;19;110478;-79
2021/12/21 15:02:03;;;;;;;;;;;5.80;99.90;;;;;;7344950;19;112095;-79
2021/12/21 15:04:30;;;;;;;;;;;5.80;99.90;;;;;;7344912;19;109853;-78
2021/12/21 15:06:57;;;;;;;;;;;5.70;99.90;;;;;;7341143;19;111980;-78
2021/12/21 15:09:24;;;;;;;;;;;5.70;99.90;;;;;;7345445;19;109399;-79
2021/12/21 15:11:53;;;;;;;;;;;5.70;99.90;;;;;;7343834;19;111030;-78
2021/12/21 15:14:19;;;;;;;;;;;5.50;99.90;;;;;;7347028;19;111758;-79
2021/12/21 15:16:47;;;;;;;;;;;5.40;99.90;;;;;;7347723;19;109328;-79
2021/12/21 15:19:14;;;;;;;;;;;5.40;99.90;;;;;;7346472;19;110930;-79
2021/12/21 15:21:41;;;;;;;;;;;5.30;99.90;;;;;;7346943;19;111847;-78
2021/12/21 15:24:08;;;;;;;;;;;5.20;99.90;;;;;;7344550;19;109865;-82
2021/12/21 15:26:35;;;;;;;;;;;5.10;99.90;;;;;;7350912;19;111126;-82
2021/12/21 15:29:02;;;;;;;;;;;5.10;99.90;;;;;;7348015;19;109257;-83